createdAt,value
2018-06-25T00:00:22.493Z,78.10
2018-06-25T00:02:50.717Z,78.00
2018-06-25T00:05:18.969Z,77.70
2018-06-25T00:07:47.120Z,77.70
2018-06-25T00:10:15.393Z,78.60
2018-06-25T00:12:43.593Z,78.60
2018-06-25T00:17:42.073Z,80.40
2018-06-25T00:20:10.248Z,80.70
2018-06-25T00:22:39.441Z,81.60
2018-06-25T00:25:07.624Z,80.40
2018-06-25T00:27:37.855Z,81.80
2018-06-25T00:30:06.082Z,82.30
2018-06-25T00:32:36.237Z,82.40
2018-06-25T00:35:04.489Z,82.10
2018-06-25T00:37:32.680Z,82.10
2018-06-25T00:40:01.731Z,81.80
2018-06-25T00:42:29.961Z,81.50
2018-06-25T00:44:58.130Z,83.90
2018-06-25T00:47:26.301Z,82.80
2018-06-25T00:49:54.496Z,81.80
2018-06-25T00:54:54.844Z,81.90
2018-06-25T01:02:21.740Z,82.20
2018-06-25T01:04:50.001Z,81.80
2018-06-25T01:09:48.953Z,81.90
2018-06-25T01:12:17.157Z,81.60
2018-06-25T01:14:45.580Z,81.70
2018-06-25T01:17:13.995Z,81.40
2018-06-25T01:19:55.982Z,82.00
2018-06-25T01:22:24.961Z,82.10
2018-06-25T01:24:53.104Z,81.70
2018-06-25T01:29:50.252Z,81.80
2018-06-25T01:32:19.456Z,82.50
2018-06-25T01:34:47.632Z,82.40
2018-06-25T01:39:44.285Z,81.80
2018-06-25T01:42:13.038Z,82.50
2018-06-25T01:44:41.248Z,83.30
2018-06-25T01:47:09.412Z,83.50
2018-06-25T01:49:41.481Z,82.80
2018-06-25T01:52:09.649Z,82.60
2018-06-25T01:54:37.840Z,83.30
2018-06-25T01:59:36.216Z,83.30
2018-06-25T02:02:04.369Z,83.70
2018-06-25T02:04:32.601Z,83.60
2018-06-25T02:09:28.829Z,84.70
2018-06-25T02:11:57.008Z,85.00
2018-06-25T02:16:53.245Z,83.80
2018-06-25T02:19:21.417Z,83.90
2018-06-25T02:21:49.553Z,83.80
2018-06-25T02:24:19.248Z,83.60
2018-06-25T02:26:47.560Z,83.90
2018-06-25T02:29:16.773Z,83.80
2018-06-25T02:31:44.949Z,83.70
2018-06-25T02:34:13.286Z,84.40
2018-06-25T02:41:43.400Z,85.30
2018-06-25T02:46:39.622Z,85.70
2018-06-25T02:49:08.821Z,85.60
2018-06-25T02:51:36.984Z,85.80
2018-06-25T02:54:05.177Z,85.50
2018-06-25T02:56:33.333Z,85.60
2018-06-25T02:59:01.688Z,85.70
2018-06-25T03:01:29.888Z,86.30
2018-06-25T03:03:58.040Z,87.80
2018-06-25T03:06:26.288Z,87.70
2018-06-25T03:08:54.452Z,87.90
2018-06-25T03:11:22.750Z,87.80
2018-06-25T03:13:57.667Z,87.70
2018-06-25T03:16:25.905Z,87.90
2018-06-25T03:18:54.064Z,88.00
2018-06-25T03:21:23.321Z,87.60
2018-06-25T03:23:51.464Z,87.20
2018-06-25T03:33:46.561Z,87.10
2018-06-25T03:36:15.154Z,87.70
2018-06-25T03:38:43.362Z,87.80
2018-06-25T03:41:13.618Z,87.90
2018-06-25T03:43:41.765Z,88.40
2018-06-25T03:51:06.900Z,88.20
2018-06-25T03:56:03.406Z,89.10
2018-06-25T03:58:31.649Z,89.10
2018-06-25T04:00:59.833Z,88.80
2018-06-25T04:03:29.116Z,88.40
2018-06-25T04:10:53.408Z,88.30
2018-06-25T04:13:21.589Z,88.80
2018-06-25T04:15:49.752Z,88.60
2018-06-25T04:18:17.936Z,88.20
2018-06-25T04:20:46.225Z,89.50
2018-06-25T04:23:14.352Z,89.00
2018-06-25T04:25:43.389Z,89.40
2018-06-25T04:30:41.112Z,89.30
2018-06-25T04:33:09.201Z,88.80
2018-06-25T04:35:37.341Z,88.60
2018-06-25T04:38:05.619Z,88.60
2018-06-25T04:40:33.845Z,89.30
2018-06-25T04:43:01.985Z,89.10
2018-06-25T04:45:30.209Z,88.90
2018-06-25T04:47:59.404Z,88.20
2018-06-25T04:52:55.524Z,88.90
2018-06-25T04:55:25.760Z,87.80
2018-06-25T04:57:53.919Z,87.70
2018-06-25T05:00:23.125Z,88.20
2018-06-25T05:02:51.296Z,87.40
2018-06-25T05:05:19.845Z,87.10
2018-06-25T05:07:47.976Z,87.00
2018-06-25T05:10:16.121Z,86.30
2018-06-25T05:12:44.284Z,85.50
2018-06-25T05:15:13.498Z,85.20
2018-06-25T05:17:41.673Z,85.50
2018-06-25T05:20:09.848Z,85.20
2018-06-25T05:22:37.991Z,84.70
2018-06-25T05:25:06.170Z,84.50
2018-06-25T05:27:34.549Z,84.10
2018-06-25T05:30:03.361Z,84.10
2018-06-25T05:32:31.780Z,84.20
2018-06-25T05:34:59.924Z,83.20
2018-06-25T05:37:28.069Z,82.90
2018-06-25T05:39:56.268Z,83.20
2018-06-25T05:42:24.425Z,83.30
2018-06-25T05:44:53.029Z,83.30
2018-06-25T05:47:22.300Z,82.50
2018-06-25T05:49:50.499Z,82.50
2018-06-25T05:52:18.674Z,82.60
2018-06-25T05:54:47.833Z,81.80
2018-06-25T05:57:16.134Z,81.10
2018-06-25T05:59:44.324Z,81.20
2018-06-25T06:02:12.509Z,81.40
2018-06-25T06:04:40.689Z,81.10
2018-06-25T06:12:05.833Z,80.30
2018-06-25T06:19:29.938Z,79.70
2018-06-25T06:24:26.566Z,79.60
2018-06-25T06:26:54.652Z,78.80
2018-06-25T06:29:23.295Z,77.80
2018-06-25T06:31:51.599Z,77.20
2018-06-25T06:34:19.796Z,76.60
2018-06-25T06:36:47.993Z,77.40
2018-06-25T06:39:21.137Z,77.80
2018-06-25T06:41:49.332Z,78.40
2018-06-25T06:46:45.709Z,76.90
2018-06-25T06:49:14.253Z,76.00
2018-06-25T06:51:42.420Z,75.20
2018-06-25T06:54:14.485Z,74.40
2018-06-25T06:56:42.652Z,73.50
2018-06-25T06:59:10.833Z,73.30
2018-06-25T07:01:39.001Z,73.80
2018-06-25T07:04:07.288Z,75.00
2018-06-25T07:06:35.460Z,74.80
2018-06-25T07:09:06.409Z,75.30
2018-06-25T07:14:02.537Z,73.60
2018-06-25T07:16:31.633Z,73.30
2018-06-25T07:18:59.810Z,73.60
2018-06-25T07:21:28.021Z,75.40
2018-06-25T07:26:25.730Z,75.50
2018-06-25T07:28:55.148Z,75.30
2018-06-25T07:31:23.386Z,75.50
2018-06-25T07:36:20.340Z,76.30
2018-06-25T07:38:48.476Z,76.00
2018-06-25T07:41:17.781Z,74.60
2018-06-25T07:43:46.361Z,74.80
2018-06-25T07:46:14.976Z,73.90
2018-06-25T07:48:44.317Z,73.20
2018-06-25T07:51:12.525Z,72.40
2018-06-25T07:53:40.738Z,72.90
2018-06-25T07:56:09.902Z,73.30
2018-06-25T07:58:38.046Z,73.00
2018-06-25T08:01:06.777Z,72.50
2018-06-25T08:06:02.905Z,70.50
2018-06-25T08:08:31.118Z,69.60
2018-06-25T08:11:01.301Z,69.00
2018-06-25T08:13:29.441Z,67.80
2018-06-25T08:15:58.656Z,68.90
2018-06-25T08:18:26.872Z,68.40
2018-06-25T08:23:22.941Z,67.30
2018-06-25T08:25:52.333Z,67.00
2018-06-25T08:28:20.564Z,65.90
2018-06-25T08:30:49.757Z,64.20
2018-06-25T08:33:17.899Z,63.60
2018-06-25T08:35:48.053Z,63.40
2018-06-25T08:38:17.268Z,62.70
2018-06-25T08:40:45.434Z,63.00
2018-06-25T08:45:41.595Z,64.30
2018-06-25T08:48:10.381Z,63.70
2018-06-25T08:50:39.005Z,63.60
2018-06-25T08:53:07.288Z,63.30
2018-06-25T08:55:36.435Z,61.50
2018-06-25T08:58:04.712Z,62.00
2018-06-25T09:03:02.866Z,58.50
2018-06-25T09:05:31.010Z,56.90
2018-06-25T09:07:59.163Z,57.50
2018-06-25T09:10:31.774Z,58.10
2018-06-25T09:13:04.789Z,57.60
2018-06-25T09:15:34.092Z,55.50
2018-06-25T09:20:31.164Z,57.00
2018-06-25T09:22:59.329Z,58.10
2018-06-25T09:25:28.529Z,56.90
2018-06-25T09:28:01.442Z,56.00
2018-06-25T09:32:57.460Z,54.80
2018-06-25T09:35:25.718Z,55.00
2018-06-25T09:37:54.316Z,55.30
2018-06-25T09:40:22.490Z,52.90
2018-06-25T09:42:50.648Z,55.20
2018-06-25T09:45:18.852Z,54.50
2018-06-25T09:47:47.013Z,53.00
2018-06-25T09:50:17.100Z,54.50
2018-06-25T09:52:45.245Z,51.50
2018-06-25T09:55:14.412Z,52.90
2018-06-25T09:57:43.765Z,53.30
2018-06-25T10:00:14.849Z,53.40
2018-06-25T10:02:42.985Z,54.20
2018-06-25T10:05:11.149Z,55.20
2018-06-25T10:07:39.705Z,54.60
2018-06-25T10:10:08.195Z,53.50
2018-06-25T10:12:36.422Z,54.00
2018-06-25T10:15:04.591Z,53.60
2018-06-25T10:17:32.761Z,52.90
2018-06-25T10:20:01.006Z,51.70
2018-06-25T10:22:29.177Z,50.20
2018-06-25T10:24:57.370Z,52.30
2018-06-25T10:27:26.702Z,52.70
2018-06-25T10:29:54.889Z,49.70
2018-06-25T10:32:23.036Z,50.20
2018-06-25T10:34:51.241Z,51.80
2018-06-25T10:37:21.487Z,49.80
2018-06-25T10:39:50.752Z,51.20
2018-06-25T10:42:18.918Z,51.30
2018-06-25T10:44:49.129Z,50.30
2018-06-25T10:47:17.336Z,46.90
2018-06-25T10:52:15.909Z,47.90
2018-06-25T10:54:44.206Z,46.90
2018-06-25T10:59:42.424Z,44.90
2018-06-25T11:02:12.606Z,43.80
2018-06-25T11:04:41.800Z,44.50
2018-06-25T11:07:12.119Z,45.40
2018-06-25T11:09:40.301Z,46.80
2018-06-25T11:12:08.461Z,47.30
2018-06-25T11:14:36.620Z,47.60
2018-06-25T11:17:04.810Z,47.70
2018-06-25T11:19:32.936Z,48.10
2018-06-25T11:22:02.122Z,47.30
2018-06-25T11:24:30.261Z,46.50
2018-06-25T11:27:00.592Z,46.80
2018-06-25T11:29:28.662Z,45.20
2018-06-25T11:31:56.813Z,44.70
2018-06-25T11:34:25.030Z,43.50
2018-06-25T11:36:55.237Z,42.70
2018-06-25T11:39:24.427Z,44.60
2018-06-25T11:41:53.153Z,45.20
2018-06-25T11:44:21.265Z,46.90
2018-06-25T11:46:49.462Z,45.30
2018-06-25T11:49:17.609Z,46.80
2018-06-25T11:51:45.789Z,45.80
2018-06-25T11:54:15.081Z,45.50
2018-06-25T11:56:43.308Z,45.10
2018-06-25T12:01:40.500Z,45.20
2018-06-25T12:06:40.701Z,43.30
2018-06-25T12:09:10.294Z,44.60
2018-06-25T12:11:44.974Z,46.30
2018-06-25T12:14:19.031Z,46.60
2018-06-25T12:16:47.214Z,46.50
2018-06-25T12:19:15.357Z,47.50
2018-06-25T12:21:44.451Z,48.80
2018-06-25T12:24:12.609Z,47.70
2018-06-25T12:26:40.767Z,46.80
2018-06-25T12:31:40.972Z,46.90
2018-06-25T12:34:09.150Z,47.80
2018-06-25T12:36:37.284Z,48.60
2018-06-25T12:39:08.235Z,48.00
2018-06-25T12:41:37.465Z,46.20
2018-06-25T12:44:07.464Z,43.10
2018-06-25T12:46:35.837Z,43.70
2018-06-25T12:49:04.168Z,45.20
2018-06-25T12:51:36.729Z,44.40
2018-06-25T12:54:05.893Z,44.30
2018-06-25T12:56:37.153Z,43.20
2018-06-25T13:01:35.333Z,40.20
2018-06-25T13:04:04.343Z,44.40
2018-06-25T13:06:32.485Z,43.70
2018-06-25T13:09:00.725Z,45.00
2018-06-25T13:11:28.823Z,46.20
2018-06-25T13:13:57.014Z,44.90
2018-06-25T13:16:25.253Z,43.60
2018-06-25T13:18:53.428Z,44.00
2018-06-25T13:21:21.572Z,40.90
2018-06-25T13:23:49.750Z,39.20
2018-06-25T13:26:18.021Z,40.20
2018-06-25T13:31:14.282Z,40.10
2018-06-25T13:33:42.280Z,40.80
2018-06-25T13:36:11.605Z,39.40
2018-06-25T13:38:40.008Z,39.80
2018-06-25T13:41:10.234Z,40.70
2018-06-25T13:43:38.589Z,40.00
2018-06-25T13:46:08.153Z,38.20
2018-06-25T13:48:36.372Z,37.00
2018-06-25T13:51:04.644Z,38.40
2018-06-25T13:53:32.789Z,39.90
2018-06-25T13:56:01.018Z,40.20
2018-06-25T13:58:29.177Z,41.80
2018-06-25T14:00:58.374Z,42.00
2018-06-25T14:03:27.616Z,43.00
2018-06-25T14:06:02.975Z,43.60
2018-06-25T14:08:33.124Z,42.20
2018-06-25T14:11:01.426Z,43.80
2018-06-25T14:13:36.281Z,41.40
2018-06-25T14:16:05.461Z,38.70
2018-06-25T14:18:33.601Z,38.50
2018-06-25T14:21:02.260Z,39.00
2018-06-25T14:23:30.904Z,41.40
2018-06-25T14:26:05.620Z,42.50
2018-06-25T14:28:35.425Z,42.70
2018-06-25T14:31:24.073Z,42.10
2018-06-25T14:33:57.708Z,40.40
2018-06-25T14:36:25.897Z,40.40
2018-06-25T14:38:54.140Z,42.80
2018-06-25T14:41:22.416Z,41.70
2018-06-25T14:43:50.584Z,42.70
2018-06-25T14:46:19.564Z,44.00
2018-06-25T14:48:47.846Z,44.00
2018-06-25T14:51:16.024Z,44.00
2018-06-25T14:53:44.165Z,43.20
2018-06-25T14:56:16.383Z,43.90
2018-06-25T14:58:44.521Z,42.80
2018-06-25T15:01:12.700Z,42.80
2018-06-25T15:03:41.921Z,42.50
2018-06-25T15:08:39.080Z,44.60
2018-06-25T15:11:08.289Z,46.30
2018-06-25T15:13:36.457Z,47.00
2018-06-25T15:16:04.758Z,46.30
2018-06-25T15:18:34.457Z,47.30
2018-06-25T15:26:01.732Z,46.20
2018-06-25T15:28:29.880Z,46.00
2018-06-25T15:30:58.072Z,46.10
2018-06-25T15:33:26.212Z,47.30
2018-06-25T15:35:54.477Z,47.10
2018-06-25T15:38:23.701Z,46.30
2018-06-25T15:40:51.862Z,45.10
2018-06-25T15:43:21.086Z,45.40
2018-06-25T15:45:53.409Z,45.70
2018-06-25T15:48:22.240Z,46.10
2018-06-25T15:50:50.421Z,46.90
2018-06-25T15:53:18.590Z,46.50
2018-06-25T15:55:53.046Z,47.80
2018-06-25T15:58:21.212Z,47.70
2018-06-25T16:03:20.842Z,48.60
2018-06-25T16:05:50.000Z,48.80
2018-06-25T16:08:18.185Z,48.40
2018-06-25T16:10:46.944Z,47.70
2018-06-25T16:13:15.092Z,47.70
2018-06-25T16:15:43.245Z,47.40
2018-06-25T16:20:39.385Z,49.30
2018-06-25T16:25:40.298Z,49.70
2018-06-25T16:28:10.527Z,49.50
2018-06-25T16:30:38.711Z,50.20
2018-06-25T16:33:06.873Z,50.30
2018-06-25T16:35:35.029Z,50.80
2018-06-25T16:38:03.278Z,52.00
2018-06-25T16:40:31.437Z,52.10
2018-06-25T16:43:00.598Z,50.70
2018-06-25T16:45:30.822Z,50.70
2018-06-25T16:48:00.012Z,51.10
2018-06-25T16:50:29.127Z,51.80
2018-06-25T16:52:59.336Z,51.60
2018-06-25T16:55:27.541Z,51.70
2018-06-25T17:00:30.861Z,52.50
2018-06-25T17:02:59.101Z,52.80
2018-06-25T17:05:28.308Z,53.20
2018-06-25T17:08:00.524Z,52.70
2018-06-25T17:10:28.745Z,53.00
2018-06-25T17:12:56.913Z,53.40
2018-06-25T17:15:25.085Z,53.40
2018-06-25T17:17:53.233Z,54.30
2018-06-25T17:20:24.508Z,53.90
2018-06-25T17:22:52.702Z,54.10
2018-06-25T17:27:53.041Z,55.00
2018-06-25T17:30:21.198Z,54.90
2018-06-25T17:32:49.401Z,55.50
2018-06-25T17:35:17.577Z,56.40
2018-06-25T17:37:46.737Z,57.10
2018-06-25T17:40:15.937Z,57.70
2018-06-25T17:42:45.134Z,57.40
2018-06-25T17:45:17.352Z,57.50
2018-06-25T17:47:45.612Z,57.20
2018-06-25T17:50:17.749Z,57.60
2018-06-25T17:52:48.684Z,57.70
2018-06-25T17:55:16.862Z,58.60
2018-06-25T17:57:47.090Z,58.40
2018-06-25T18:00:15.402Z,58.10
2018-06-25T18:02:43.655Z,59.00
2018-06-25T18:05:15.881Z,58.50
2018-06-25T18:07:50.769Z,58.80
2018-06-25T18:12:48.124Z,59.40
2018-06-25T18:15:17.306Z,59.10
2018-06-25T18:17:45.505Z,59.70
2018-06-25T18:20:13.753Z,58.10
2018-06-25T18:22:41.936Z,59.00
2018-06-25T18:25:10.552Z,57.60
2018-06-25T18:27:41.240Z,57.80
2018-06-25T18:30:10.441Z,58.30
2018-06-25T18:32:38.809Z,58.70
2018-06-25T18:35:08.085Z,59.30
2018-06-25T18:37:38.242Z,60.00
2018-06-25T18:40:06.623Z,60.60
2018-06-25T18:42:35.817Z,60.60
2018-06-25T18:45:08.065Z,60.70
2018-06-25T18:47:38.397Z,61.00
2018-06-25T18:50:06.589Z,60.90
2018-06-25T18:52:35.829Z,61.00
2018-06-25T18:55:04.850Z,60.90
2018-06-25T18:57:33.069Z,60.30
2018-06-25T19:00:02.265Z,60.60
2018-06-25T19:07:31.579Z,62.20
2018-06-25T19:10:00.794Z,61.80
2018-06-25T19:12:29.065Z,62.80
2018-06-25T19:14:57.228Z,61.30
2018-06-25T19:17:25.418Z,61.60
2018-06-25T19:19:55.293Z,61.40
2018-06-25T19:22:23.678Z,61.80
2018-06-25T19:24:52.908Z,62.70
2018-06-25T19:27:21.085Z,62.50
2018-06-25T19:29:50.324Z,64.60
2018-06-25T19:32:20.528Z,64.70
2018-06-25T19:37:20.648Z,65.30
2018-06-25T19:39:48.820Z,65.40
2018-06-25T19:44:47.378Z,65.70
2018-06-25T19:47:15.595Z,67.20
2018-06-25T19:54:41.693Z,68.20
2018-06-25T19:57:12.261Z,69.00
2018-06-25T19:59:40.469Z,69.50
2018-06-25T20:02:08.591Z,69.50
2018-06-25T20:04:36.848Z,69.30
2018-06-25T20:07:05.170Z,69.50
2018-06-25T20:09:35.385Z,69.90
2018-06-25T20:12:03.601Z,70.60
2018-06-25T20:17:02.777Z,70.30
2018-06-25T20:19:30.986Z,69.90
2018-06-25T20:21:59.126Z,69.50
2018-06-25T20:24:27.313Z,70.20
2018-06-25T20:26:55.551Z,69.80
2018-06-25T20:29:28.281Z,70.00
2018-06-25T20:31:56.632Z,69.50
2018-06-25T20:34:25.245Z,69.20
2018-06-25T20:36:54.689Z,69.90
2018-06-25T20:39:22.908Z,71.30
2018-06-25T20:41:53.117Z,69.70
2018-06-25T20:44:22.325Z,69.90
2018-06-25T20:46:52.637Z,70.20
2018-06-25T20:49:21.737Z,70.30
2018-06-25T20:51:49.921Z,71.20
2018-06-25T20:54:18.111Z,72.20
2018-06-25T20:56:47.362Z,72.10
2018-06-25T20:59:16.131Z,71.70
2018-06-25T21:01:44.363Z,72.10
2018-06-25T21:04:12.531Z,72.90
2018-06-25T21:06:42.821Z,73.10
2018-06-25T21:09:12.249Z,72.90
2018-06-25T21:11:41.140Z,73.20
2018-06-25T21:14:09.333Z,73.40
2018-06-25T21:19:06.485Z,73.80
2018-06-25T21:21:36.701Z,73.90
2018-06-25T21:24:05.050Z,73.60
2018-06-25T21:26:33.266Z,74.30
2018-06-25T21:29:02.445Z,73.80
2018-06-25T21:31:30.664Z,73.90
2018-06-25T21:36:27.797Z,74.70
2018-06-25T21:38:57.005Z,75.40
2018-06-25T21:41:25.153Z,74.60
2018-06-25T21:43:53.364Z,74.60
2018-06-25T21:46:21.510Z,74.70
2018-06-25T21:48:50.764Z,74.80
2018-06-25T21:51:20.937Z,74.90
2018-06-25T21:53:50.132Z,75.50
2018-06-25T21:56:18.285Z,76.40
2018-06-25T21:58:46.420Z,75.20
2018-06-25T22:01:25.357Z,75.60
2018-06-25T22:03:53.580Z,75.40
2018-06-25T22:06:21.752Z,75.70
2018-06-25T22:08:50.009Z,76.00
2018-06-25T22:11:22.373Z,76.20
2018-06-25T22:13:50.509Z,76.80
2018-06-25T22:16:18.665Z,76.80
2018-06-25T22:18:46.816Z,76.80
2018-06-25T22:21:15.021Z,77.30
2018-06-25T22:26:11.114Z,77.40
2018-06-25T22:28:39.261Z,77.00
2018-06-25T22:31:07.529Z,77.20
2018-06-25T22:33:35.757Z,76.80
2018-06-25T22:36:03.943Z,77.20
2018-06-25T22:38:32.104Z,77.30
2018-06-25T22:41:00.320Z,76.90
2018-06-25T22:43:28.560Z,76.60
2018-06-25T22:45:56.745Z,77.40
2018-06-25T22:48:24.921Z,78.50
2018-06-25T22:50:54.108Z,78.40
2018-06-25T22:53:22.250Z,78.10
2018-06-25T22:55:50.497Z,78.20
2018-06-25T22:58:18.726Z,77.80
2018-06-25T23:00:47.925Z,78.20
2018-06-25T23:03:16.580Z,78.70
2018-06-25T23:05:44.786Z,79.20
2018-06-25T23:08:12.987Z,78.90
2018-06-25T23:10:41.130Z,78.70
2018-06-25T23:13:09.329Z,78.80
2018-06-25T23:15:37.548Z,78.80
2018-06-25T23:18:05.757Z,78.70
2018-06-25T23:20:33.937Z,79.00
2018-06-25T23:23:02.128Z,79.30
2018-06-25T23:25:30.274Z,79.80
2018-06-25T23:27:58.454Z,79.90
2018-06-25T23:30:26.609Z,79.70
2018-06-25T23:32:54.817Z,79.90
2018-06-25T23:35:22.978Z,80.30
2018-06-25T23:40:28.341Z,78.60
2018-06-25T23:42:56.568Z,77.90
2018-06-25T23:45:24.709Z,77.50
2018-06-25T23:50:20.825Z,77.90
2018-06-25T23:52:49.107Z,78.10
2018-06-25T23:55:17.288Z,78.90
2018-06-25T23:57:45.514Z,78.70
